createdAt,value
2018-06-28T00:01:17.958Z,4.10
2018-06-28T00:03:48.616Z,3.75
2018-06-28T00:06:19.073Z,4.08
2018-06-28T00:08:49.833Z,4.00
2018-06-28T00:11:20.334Z,3.65
2018-06-28T00:13:50.795Z,4.25
2018-06-28T00:16:21.353Z,4.12
2018-06-28T00:18:51.828Z,3.83
2018-06-28T00:21:22.704Z,4.33
2018-06-28T00:23:53.225Z,4.08
2018-06-28T00:26:23.789Z,4.10
2018-06-28T00:28:54.238Z,4.40
2018-06-28T00:31:24.736Z,4.15
2018-06-28T00:33:55.249Z,3.98
2018-06-28T00:36:25.625Z,4.35
2018-06-28T00:38:56.067Z,4.50
2018-06-28T00:41:26.495Z,4.10
2018-06-28T00:43:56.951Z,4.42
2018-06-28T00:46:27.449Z,4.55
2018-06-28T00:48:57.819Z,4.35
2018-06-28T00:51:29.408Z,4.50
2018-06-28T00:53:59.858Z,4.87
2018-06-28T00:56:30.444Z,4.10
2018-06-28T00:59:00.884Z,4.67
2018-06-28T01:01:31.345Z,4.30
2018-06-28T01:04:01.848Z,5.35
2018-06-28T01:06:32.359Z,4.67
2018-06-28T01:09:02.783Z,4.53
2018-06-28T01:11:33.206Z,4.60
2018-06-28T01:14:03.757Z,4.35
2018-06-28T01:16:34.281Z,4.05
2018-06-28T01:19:04.802Z,4.20
2018-06-28T01:21:35.324Z,4.20
2018-06-28T01:24:05.821Z,4.58
2018-06-28T01:26:36.323Z,4.10
2018-06-28T01:29:06.783Z,4.15
2018-06-28T01:31:37.282Z,5.15
2018-06-28T01:34:07.762Z,4.90
2018-06-28T01:36:38.287Z,4.62
2018-06-28T01:39:11.338Z,5.22
2018-06-28T01:41:58.810Z,5.10
2018-06-28T01:44:29.297Z,5.00
2018-06-28T01:46:59.472Z,4.70
2018-06-28T01:49:29.812Z,5.30
2018-06-28T01:52:00.306Z,5.75
2018-06-28T01:54:30.671Z,4.60
2018-06-28T01:57:01.118Z,4.70
2018-06-28T01:59:31.621Z,5.03
2018-06-28T02:02:02.628Z,5.33
2018-06-28T02:04:33.067Z,5.12
2018-06-28T02:07:03.566Z,5.22
2018-06-28T02:09:34.007Z,5.40
2018-06-28T02:12:04.610Z,5.15
2018-06-28T02:14:35.090Z,4.90
2018-06-28T02:17:05.637Z,4.85
2018-06-28T02:19:36.121Z,4.90
2018-06-28T02:22:07.032Z,5.35
2018-06-28T02:24:37.469Z,4.65
2018-06-28T02:27:08.032Z,4.85
2018-06-28T02:29:38.417Z,5.00
2018-06-28T02:32:09.723Z,5.20
2018-06-28T02:34:40.159Z,5.08
2018-06-28T02:37:10.587Z,5.20
2018-06-28T02:39:41.080Z,5.10
2018-06-28T02:42:11.541Z,4.87
2018-06-28T02:44:41.948Z,4.62
2018-06-28T02:47:12.436Z,5.35
2018-06-28T02:49:42.927Z,5.40
2018-06-28T02:52:13.455Z,4.92
2018-06-28T02:54:43.917Z,5.05
2018-06-28T02:57:14.534Z,4.83
2018-06-28T02:59:44.972Z,4.83
2018-06-28T03:02:15.560Z,5.28
2018-06-28T03:04:46.061Z,5.35
2018-06-28T03:07:16.590Z,5.97
2018-06-28T03:09:47.073Z,6.05
2018-06-28T03:12:17.621Z,5.40
2018-06-28T03:14:48.024Z,5.53
2018-06-28T03:17:18.521Z,6.00
2018-06-28T03:19:48.976Z,5.40
2018-06-28T03:22:19.485Z,5.60
2018-06-28T03:24:49.977Z,5.42
2018-06-28T03:27:20.613Z,5.67
2018-06-28T03:29:51.041Z,5.58
2018-06-28T03:32:22.207Z,5.92
2018-06-28T03:34:52.690Z,5.80
2018-06-28T03:37:23.153Z,5.90
2018-06-28T03:39:53.629Z,5.20
2018-06-28T03:42:24.317Z,5.90
2018-06-28T03:44:54.849Z,6.22
2018-06-28T03:47:25.429Z,6.10
2018-06-28T03:49:55.828Z,6.35
2018-06-28T03:52:26.255Z,5.80
2018-06-28T03:54:56.727Z,5.70
2018-06-28T04:00:34.677Z,6.53
2018-06-28T04:03:05.385Z,5.53
2018-06-28T04:05:36.867Z,6.35
2018-06-28T04:08:07.897Z,6.50
2018-06-28T04:10:38.457Z,7.85
2018-06-28T04:13:08.991Z,6.28
2018-06-28T04:15:39.450Z,5.95
2018-06-28T04:18:10.000Z,5.90
2018-06-28T04:20:40.460Z,6.25
2018-06-28T04:23:10.934Z,6.90
2018-06-28T04:25:41.391Z,7.03
2018-06-28T04:28:11.865Z,6.85
2018-06-28T04:30:42.436Z,6.67
2018-06-28T04:33:13.577Z,6.95
2018-06-28T04:35:44.073Z,6.12
2018-06-28T04:38:14.536Z,6.30
2018-06-28T04:40:45.438Z,7.35
2018-06-28T04:43:16.306Z,7.20
2018-06-28T04:45:46.741Z,6.20
2018-06-28T04:48:18.128Z,6.60
2018-06-28T04:50:48.719Z,6.20
2018-06-28T04:53:19.190Z,6.28
2018-06-28T04:55:49.714Z,5.90
2018-06-28T04:58:20.452Z,5.37
2018-06-28T05:00:50.893Z,5.70
2018-06-28T05:03:21.394Z,6.25
2018-06-28T05:05:51.788Z,6.03
2018-06-28T05:08:22.239Z,5.60
2018-06-28T05:10:52.806Z,5.83
2018-06-28T05:13:29.435Z,6.25
2018-06-28T05:16:00.117Z,5.62
2018-06-28T05:18:30.598Z,5.85
2018-06-28T05:21:01.037Z,5.60
2018-06-28T05:23:31.570Z,4.70
2018-06-28T05:26:02.518Z,5.15
2018-06-28T05:28:36.616Z,5.58
2018-06-28T05:31:07.255Z,4.42
2018-06-28T05:33:37.730Z,4.45
2018-06-28T05:36:08.358Z,4.85
2018-06-28T05:38:38.940Z,5.08
2018-06-28T05:41:09.488Z,4.85
2018-06-28T05:43:40.064Z,5.20
2018-06-28T05:46:10.748Z,5.20
2018-06-28T05:48:41.292Z,4.87
2018-06-28T05:51:11.993Z,5.70
2018-06-28T05:53:42.534Z,5.28
2018-06-28T05:56:13.225Z,5.10
2018-06-28T05:58:44.661Z,5.47
2018-06-28T06:01:16.136Z,5.90
2018-06-28T06:03:48.174Z,5.58
2018-06-28T06:06:18.966Z,5.35
2018-06-28T06:08:49.557Z,4.70
2018-06-28T06:11:20.085Z,4.58
2018-06-28T06:13:50.853Z,5.92
2018-06-28T06:16:21.260Z,5.97
2018-06-28T06:18:51.748Z,5.35
2018-06-28T06:21:22.226Z,4.62
2018-06-28T06:23:52.693Z,5.05
2018-06-28T06:26:24.059Z,5.20
2018-06-28T06:28:54.666Z,5.10
2018-06-28T06:34:21.627Z,5.60
2018-06-28T06:37:01.728Z,5.85
2018-06-28T06:39:36.343Z,5.35
2018-06-28T06:42:20.115Z,5.87
2018-06-28T06:44:50.902Z,5.87
2018-06-28T06:47:23.692Z,5.55
2018-06-28T06:50:09.608Z,6.08
2018-06-28T06:52:48.624Z,6.85
2018-06-28T06:58:29.751Z,5.42
2018-06-28T07:01:09.674Z,5.15
2018-06-28T07:03:51.459Z,5.00
2018-06-28T07:06:34.762Z,5.58
2018-06-28T07:09:20.754Z,5.20
2018-06-28T07:12:10.142Z,5.65
2018-06-28T07:14:53.639Z,5.30
2018-06-28T07:17:32.505Z,5.17
2018-06-28T07:20:20.877Z,5.20
2018-06-28T07:23:03.873Z,5.40
2018-06-28T07:25:44.694Z,5.50
2018-06-28T07:28:29.323Z,5.50
2018-06-28T07:31:19.050Z,5.35
2018-06-28T07:34:02.942Z,5.60
2018-06-28T07:36:50.969Z,5.35
2018-06-28T07:39:24.372Z,5.40
2018-06-28T07:41:54.868Z,5.10
2018-06-28T07:44:25.344Z,5.60
2018-06-28T07:46:55.908Z,5.40
2018-06-28T07:49:26.355Z,5.47
2018-06-28T07:51:56.850Z,5.60
2018-06-28T07:54:27.379Z,4.80
2018-06-28T07:56:57.943Z,5.25
2018-06-28T07:59:28.460Z,5.60
2018-06-28T08:01:58.887Z,5.15
2018-06-28T08:04:29.368Z,4.72
2018-06-28T08:06:59.900Z,5.15
2018-06-28T08:09:30.321Z,5.12
2018-06-28T08:12:00.835Z,5.20
2018-06-28T08:14:31.301Z,5.75
2018-06-28T08:17:02.372Z,5.42
2018-06-28T08:19:32.962Z,5.58
2018-06-28T08:22:03.531Z,5.50
2018-06-28T08:24:33.961Z,5.50
2018-06-28T08:27:04.639Z,4.95
2018-06-28T08:29:34.986Z,5.12
2018-06-28T08:32:05.829Z,6.00
2018-06-28T08:34:36.258Z,4.95
2018-06-28T08:37:15.288Z,5.87
2018-06-28T08:39:46.716Z,5.45
2018-06-28T08:42:17.257Z,5.55
2018-06-28T08:44:47.788Z,5.40
2018-06-28T08:47:18.271Z,5.17
2018-06-28T08:49:48.818Z,5.90
2018-06-28T08:52:26.286Z,5.72
2018-06-28T08:55:04.690Z,5.40
2018-06-28T08:57:44.426Z,5.47
2018-06-28T09:00:26.383Z,5.10
2018-06-28T09:03:04.407Z,5.75
2018-06-28T09:05:49.652Z,5.25
2018-06-28T09:08:24.080Z,6.12
2018-06-28T09:11:08.878Z,5.70
2018-06-28T09:13:52.402Z,6.30
2018-06-28T09:16:30.692Z,6.00
2018-06-28T09:19:12.017Z,5.42
2018-06-28T09:21:49.803Z,5.20
2018-06-28T09:24:25.542Z,5.72
2018-06-28T09:27:03.580Z,5.67
2018-06-28T09:29:35.726Z,5.10
2018-06-28T09:32:17.437Z,5.08
2018-06-28T09:34:57.686Z,5.70
2018-06-28T09:37:38.648Z,4.85
2018-06-28T09:40:27.867Z,5.10
2018-06-28T09:43:09.845Z,5.55
2018-06-28T09:45:51.737Z,5.42
2018-06-28T09:48:32.812Z,5.30
2018-06-28T09:51:12.048Z,6.45
2018-06-28T09:53:45.782Z,6.05
2018-06-28T09:56:18.146Z,5.78
2018-06-28T09:58:54.328Z,5.30
2018-06-28T10:01:25.271Z,5.65
2018-06-28T10:03:56.851Z,6.40
2018-06-28T10:06:32.813Z,5.33
2018-06-28T10:09:05.032Z,5.58
2018-06-28T10:11:40.314Z,5.90
2018-06-28T10:14:15.672Z,6.05
2018-06-28T10:16:49.998Z,5.17
2018-06-28T10:19:28.950Z,5.17
2018-06-28T10:21:59.494Z,5.75
2018-06-28T10:24:32.278Z,5.35
2018-06-28T10:27:02.772Z,4.60
2018-06-28T10:29:36.522Z,4.12
2018-06-28T10:32:08.301Z,4.28
2018-06-28T10:34:41.142Z,4.53
2018-06-28T10:37:23.927Z,4.42
2018-06-28T10:40:01.702Z,5.22
2018-06-28T10:42:38.571Z,4.80
2018-06-28T10:45:19.357Z,4.80
2018-06-28T10:47:58.255Z,4.72
2018-06-28T10:50:35.595Z,4.92
2018-06-28T10:53:24.493Z,4.80
2018-06-28T10:56:11.677Z,6.15
2018-06-28T10:58:47.853Z,5.33
2018-06-28T11:04:18.352Z,5.30
2018-06-28T11:07:00.317Z,5.28
2018-06-28T11:15:51.558Z,5.40
2018-06-28T11:18:35.318Z,5.30
2018-06-28T11:21:14.704Z,5.37
2018-06-28T11:23:59.125Z,5.58
2018-06-28T11:30:17.035Z,5.50
2018-06-28T11:36:05.706Z,6.30
2018-06-28T11:38:45.987Z,6.30
2018-06-28T11:41:29.538Z,5.70
2018-06-28T11:44:24.071Z,6.08
2018-06-28T11:50:14.009Z,5.78
2018-06-28T11:52:59.615Z,6.12
2018-06-28T11:55:54.251Z,5.90
2018-06-28T11:58:34.885Z,6.03
2018-06-28T12:01:41.885Z,6.08
2018-06-28T12:07:50.136Z,6.35
2018-06-28T12:21:49.922Z,5.70
2018-06-28T12:30:40.213Z,7.58
2018-06-28T12:33:20.611Z,6.12
2018-06-28T12:36:30.161Z,6.67
2018-06-28T12:42:25.305Z,6.40
2018-06-28T12:48:12.207Z,6.40
2018-06-28T12:50:54.375Z,7.10
2018-06-28T12:53:33.797Z,6.35
2018-06-28T12:56:33.455Z,6.00
2018-06-28T12:59:21.400Z,7.10
2018-06-28T13:02:20.070Z,7.50
2018-06-28T13:05:08.598Z,7.05
